createdAt,value
2024-02-04T00:00:07.422Z,35.30
2024-02-04T00:03:15.025Z,32.83
2024-02-04T00:06:18.360Z,25.27
2024-02-04T00:09:21.195Z,26.23
2024-02-04T00:12:23.749Z,24.80
2024-02-04T00:15:30.099Z,22.13
2024-02-04T00:18:33.391Z,30.75
2024-02-04T00:21:36.056Z,23.77
2024-02-04T00:24:38.890Z,26.52
2024-02-04T00:27:41.567Z,22.25
2024-02-04T00:30:44.148Z,25.63
2024-02-04T00:33:46.901Z,21.20
2024-02-04T00:36:49.597Z,24.98
2024-02-04T00:39:52.534Z,28.13
2024-02-04T00:42:55.194Z,36.22
2024-02-04T00:45:58.123Z,28.23
2024-02-04T00:49:01.037Z,27.13
2024-02-04T00:52:04.034Z,42.20
2024-02-04T00:55:08.360Z,49.42
2024-02-04T00:58:11.092Z,50.90
2024-02-04T01:01:14.007Z,45.83
2024-02-04T01:04:17.125Z,41.63
2024-02-04T01:07:19.801Z,39.65
2024-02-04T01:10:22.688Z,33.53
2024-02-04T01:13:27.956Z,25.23
2024-02-04T01:16:31.036Z,25.38
2024-02-04T01:19:33.620Z,28.98
2024-02-04T01:22:36.806Z,36.85
2024-02-04T01:25:42.757Z,40.17
2024-02-04T01:28:46.491Z,47.40
2024-02-04T01:31:49.035Z,54.97
2024-02-04T01:34:51.791Z,50.25
2024-02-04T01:37:54.900Z,45.45
2024-02-04T01:40:59.012Z,46.97
2024-02-04T01:44:01.685Z,39.78
2024-02-04T01:47:04.842Z,41.28
2024-02-04T01:50:08.101Z,38.80
2024-02-04T01:53:12.037Z,40.17
2024-02-04T01:56:14.762Z,36.30
2024-02-04T01:59:18.609Z,34.08
2024-02-04T02:02:21.937Z,36.40
2024-02-04T02:05:24.519Z,40.17
2024-02-04T02:08:27.267Z,38.83
2024-02-04T02:11:42.939Z,44.77
2024-02-04T02:15:02.435Z,39.70
2024-02-04T02:18:21.180Z,42.85
2024-02-04T02:21:53.776Z,37.97
2024-02-04T02:24:58.902Z,39.28
2024-02-04T02:28:01.790Z,42.28
2024-02-04T02:31:07.453Z,46.78
2024-02-04T02:34:11.649Z,46.00
2024-02-04T02:37:28.715Z,45.97
2024-02-04T02:40:40.649Z,56.00
2024-02-04T02:43:45.855Z,58.13
2024-02-04T02:46:48.901Z,55.47
2024-02-04T02:49:55.966Z,67.03
2024-02-04T02:52:58.898Z,69.90
2024-02-04T02:56:01.567Z,65.90
2024-02-04T02:59:05.006Z,64.85
2024-02-04T03:02:07.857Z,65.43
2024-02-04T03:05:10.995Z,54.40
2024-02-04T03:08:13.567Z,60.90
2024-02-04T03:11:16.222Z,64.88
2024-02-04T03:14:19.492Z,64.03
2024-02-04T03:17:23.624Z,67.95
2024-02-04T03:20:27.931Z,71.53
2024-02-04T03:23:30.522Z,64.95
2024-02-04T03:26:33.492Z,58.05
2024-02-04T03:29:36.117Z,226.90
2024-02-04T03:32:38.920Z,122.03
2024-02-04T03:35:41.676Z,90.13
2024-02-04T03:38:44.391Z,85.45
2024-02-04T03:41:47.048Z,63.25
2024-02-04T03:44:49.566Z,61.37
2024-02-04T03:47:52.408Z,69.57
2024-02-04T03:50:55.109Z,72.50
2024-02-04T03:53:57.818Z,72.38
2024-02-04T03:57:01.497Z,69.70
2024-02-04T04:00:06.091Z,64.57
2024-02-04T04:03:14.352Z,60.35
2024-02-04T04:06:17.325Z,56.30
2024-02-04T04:09:21.468Z,55.40
2024-02-04T04:12:24.219Z,55.67
2024-02-04T04:15:27.989Z,52.30
2024-02-04T04:18:30.802Z,56.08
2024-02-04T04:21:33.527Z,77.25
2024-02-04T04:24:36.335Z,55.10
2024-02-04T04:27:39.003Z,50.67
2024-02-04T04:30:41.673Z,44.78
2024-02-04T04:33:44.807Z,110.28
2024-02-04T04:36:48.042Z,62.87
2024-02-04T04:39:50.829Z,50.63
2024-02-04T04:42:53.557Z,49.80
2024-02-04T04:45:56.349Z,45.87
2024-02-04T04:48:59.981Z,43.42
2024-02-04T04:52:02.798Z,45.47
2024-02-04T04:55:09.549Z,42.28
2024-02-04T04:58:12.330Z,50.17
2024-02-04T05:01:15.769Z,44.97
2024-02-04T05:04:20.147Z,43.58
2024-02-04T05:07:23.944Z,43.40
2024-02-04T05:10:26.835Z,46.08
2024-02-04T05:13:29.828Z,57.80
2024-02-04T05:16:33.343Z,53.60
2024-02-04T05:19:40.574Z,54.60
2024-02-04T05:22:44.550Z,77.90
2024-02-04T05:25:47.154Z,76.78
2024-02-04T05:28:50.808Z,73.18
2024-02-04T05:31:53.712Z,73.20
2024-02-04T05:34:56.523Z,56.38
2024-02-04T05:37:59.222Z,55.67
2024-02-04T05:41:01.879Z,53.70
2024-02-04T05:44:04.693Z,59.05
2024-02-04T05:47:07.452Z,63.50
2024-02-04T05:50:10.659Z,75.90
2024-02-04T05:53:13.600Z,61.08
2024-02-04T05:56:17.463Z,57.90
2024-02-04T05:59:21.403Z,96.22
2024-02-04T06:02:28.416Z,164.90
2024-02-04T06:05:31.117Z,208.07
2024-02-04T06:08:33.749Z,128.80
2024-02-04T06:11:37.471Z,91.45
2024-02-04T06:14:41.629Z,87.47
2024-02-04T06:17:45.036Z,91.27
2024-02-04T06:20:47.557Z,77.93
2024-02-04T06:23:52.039Z,54.53
2024-02-04T06:26:54.597Z,44.17
2024-02-04T06:29:57.255Z,57.80
2024-02-04T06:33:00.350Z,65.30
2024-02-04T06:36:03.372Z,78.10
2024-02-04T06:39:09.966Z,95.43
2024-02-04T06:42:12.729Z,79.88
2024-02-04T06:45:15.535Z,67.90
2024-02-04T06:48:21.322Z,72.53
2024-02-04T06:51:24.117Z,63.88
2024-02-04T06:54:26.859Z,105.57
2024-02-04T06:57:29.473Z,105.78
2024-02-04T07:00:32.126Z,143.93
2024-02-04T07:03:35.234Z,118.65
2024-02-04T07:06:38.156Z,118.57
2024-02-04T07:09:40.904Z,76.60
2024-02-04T07:12:44.101Z,38.55
2024-02-04T07:15:46.992Z,27.77
2024-02-04T07:18:50.040Z,42.33
2024-02-04T07:21:53.081Z,32.63
2024-02-04T07:24:56.104Z,36.72
2024-02-04T07:28:00.010Z,31.08
2024-02-04T07:31:03.143Z,22.73
2024-02-04T07:34:08.506Z,14.57
2024-02-04T07:37:11.438Z,12.23
2024-02-04T07:40:14.268Z,10.23
2024-02-04T07:43:17.256Z,10.45
2024-02-04T07:46:20.664Z,10.20
2024-02-04T07:49:23.798Z,5.63
2024-02-04T07:52:26.640Z,14.07
2024-02-04T07:55:29.323Z,10.93
2024-02-04T07:58:31.885Z,16.02
2024-02-04T08:01:34.467Z,37.03
2024-02-04T08:04:41.376Z,47.90
2024-02-04T08:07:44.293Z,44.42
2024-02-04T08:10:47.242Z,45.73
2024-02-04T08:13:49.865Z,46.30
2024-02-04T08:16:52.400Z,46.15
2024-02-04T08:19:55.150Z,53.17
2024-02-04T08:22:57.812Z,47.53
2024-02-04T08:26:00.990Z,33.85
2024-02-04T08:29:06.384Z,31.70
2024-02-04T08:32:09.352Z,27.45
2024-02-04T08:35:13.168Z,19.65
2024-02-04T08:38:17.710Z,22.20
2024-02-04T08:41:20.676Z,21.70
2024-02-04T08:44:32.238Z,19.77
2024-02-04T08:47:42.094Z,22.25
2024-02-04T08:50:44.634Z,21.57
2024-02-04T08:53:47.189Z,23.15
2024-02-04T08:56:50.237Z,20.23
2024-02-04T08:59:54.491Z,20.45
2024-02-04T09:02:58.619Z,19.43
2024-02-04T09:06:01.428Z,28.13
2024-02-04T09:09:04.257Z,27.05
2024-02-04T09:12:07.096Z,26.57
2024-02-04T09:15:09.937Z,26.20
2024-02-04T09:18:12.711Z,23.05
2024-02-04T09:21:15.551Z,18.35
2024-02-04T09:24:18.587Z,15.97
2024-02-04T09:27:21.384Z,15.80
2024-02-04T09:30:24.727Z,19.45
2024-02-04T09:33:27.587Z,15.73
2024-02-04T09:36:31.758Z,18.40
2024-02-04T09:39:35.109Z,19.90
2024-02-04T09:42:38.378Z,13.88
2024-02-04T09:45:43.062Z,6.40
2024-02-04T09:48:50.431Z,4.23
2024-02-04T09:51:56.241Z,3.03
2024-02-04T09:55:05.194Z,2.50
2024-02-04T09:58:08.293Z,1.43
2024-02-04T10:01:12.788Z,4.03
2024-02-04T10:04:16.319Z,3.42
2024-02-04T10:07:22.281Z,4.07
2024-02-04T10:10:26.103Z,4.80
2024-02-04T10:13:49.301Z,5.57
2024-02-04T10:16:52.457Z,5.00
2024-02-04T10:19:55.287Z,2.33
2024-02-04T10:22:58.581Z,3.50
2024-02-04T10:26:06.473Z,2.97
2024-02-04T10:29:10.447Z,6.30
2024-02-04T10:32:20.501Z,5.13
2024-02-04T10:35:25.609Z,4.07
2024-02-04T10:38:33.828Z,8.93
2024-02-04T10:41:44.818Z,4.68
2024-02-04T10:44:50.467Z,1.95
2024-02-04T10:47:58.807Z,2.30
2024-02-04T10:51:01.881Z,3.00
2024-02-04T10:54:07.110Z,1.80
2024-02-04T10:57:20.104Z,4.68
2024-02-04T11:00:25.641Z,2.50
2024-02-04T11:03:30.627Z,3.73
2024-02-04T11:06:34.258Z,3.40
2024-02-04T11:09:38.073Z,2.58
2024-02-04T11:12:42.878Z,1.88
2024-02-04T11:15:46.889Z,9.63
2024-02-04T11:19:24.232Z,50.67
2024-02-04T11:22:33.537Z,11.05
2024-02-04T11:25:59.807Z,6.57
2024-02-04T11:29:02.930Z,2.42
2024-02-04T11:32:07.395Z,3.40
2024-02-04T11:35:12.857Z,3.92
2024-02-04T11:38:19.785Z,5.88
2024-02-04T11:41:28.756Z,2.80
2024-02-04T11:44:31.457Z,11.13
2024-02-04T11:47:35.273Z,7.90
2024-02-04T11:50:40.657Z,7.15
2024-02-04T11:53:43.683Z,9.30
2024-02-04T11:56:47.853Z,7.90
2024-02-04T11:59:51.674Z,7.97
2024-02-04T12:03:04.220Z,6.67
2024-02-04T12:06:07.354Z,3.30
2024-02-04T12:09:11.092Z,6.32
2024-02-04T12:12:13.952Z,1.25
2024-02-04T12:15:18.427Z,2.60
2024-02-04T12:18:22.334Z,6.07
2024-02-04T12:21:26.837Z,1.30
2024-02-04T12:24:29.627Z,6.75
2024-02-04T12:27:32.385Z,3.40
2024-02-04T12:30:35.255Z,3.57
2024-02-04T12:33:40.419Z,3.47
2024-02-04T12:36:46.248Z,2.60
2024-02-04T12:39:50.511Z,8.13
2024-02-04T12:43:07.108Z,4.07
2024-02-04T12:46:10.162Z,3.23
2024-02-04T12:49:22.215Z,2.73
2024-02-04T12:52:24.908Z,5.43
2024-02-04T12:55:34.547Z,6.32
2024-02-04T12:58:43.933Z,5.78
2024-02-04T13:01:46.729Z,8.10
2024-02-04T13:04:50.705Z,6.40
2024-02-04T13:08:00.582Z,6.82
2024-02-04T13:11:03.677Z,5.40
2024-02-04T13:14:07.774Z,4.88
2024-02-04T13:17:11.096Z,8.77
2024-02-04T13:20:13.707Z,9.50
2024-02-04T13:23:16.593Z,9.48
2024-02-04T13:26:19.279Z,29.25
2024-02-04T13:29:23.136Z,19.80
2024-02-04T13:32:26.064Z,7.40
2024-02-04T13:35:29.055Z,13.30
2024-02-04T13:38:31.852Z,8.63
2024-02-04T13:41:34.553Z,10.30
2024-02-04T13:44:37.337Z,6.37
2024-02-04T13:47:40.215Z,7.13
2024-02-04T13:50:45.935Z,6.93
2024-02-04T13:53:48.617Z,7.00
2024-02-04T13:56:51.439Z,9.95
2024-02-04T13:59:54.429Z,11.50
2024-02-04T14:02:56.985Z,17.38
2024-02-04T14:06:01.723Z,14.98
2024-02-04T14:09:04.845Z,26.27
2024-02-04T14:12:08.488Z,25.95
2024-02-04T14:15:11.232Z,37.90
2024-02-04T14:18:18.985Z,22.27
2024-02-04T14:21:22.803Z,17.77
2024-02-04T14:24:25.757Z,20.80
2024-02-04T14:27:30.130Z,18.27
2024-02-04T14:30:33.337Z,18.63
2024-02-04T14:33:36.081Z,21.48
2024-02-04T14:36:40.319Z,20.45
2024-02-04T14:39:43.450Z,23.75
2024-02-04T14:42:46.345Z,20.53
2024-02-04T14:45:49.565Z,9.77
2024-02-04T14:48:53.674Z,14.65
2024-02-04T14:51:56.457Z,11.25
2024-02-04T14:55:00.593Z,12.50
2024-02-04T14:58:03.352Z,9.70
2024-02-04T15:01:06.517Z,17.20
2024-02-04T15:04:10.501Z,11.13
2024-02-04T15:07:13.824Z,20.33
2024-02-04T15:10:16.929Z,11.67
2024-02-04T15:13:19.974Z,20.40
2024-02-04T15:16:23.421Z,17.08
2024-02-04T15:19:27.800Z,15.50
2024-02-04T15:22:31.781Z,12.80
2024-02-04T15:25:35.969Z,10.18
2024-02-04T15:28:39.834Z,10.90
2024-02-04T15:31:42.990Z,10.82
2024-02-04T15:34:46.456Z,8.30
2024-02-04T15:37:49.251Z,11.65
2024-02-04T15:40:52.042Z,21.35
2024-02-04T15:43:54.873Z,21.58
2024-02-04T15:46:59.110Z,19.70
2024-02-04T15:50:02.339Z,18.95
2024-02-04T15:53:07.019Z,18.33
2024-02-04T15:56:12.253Z,18.07
2024-02-04T15:59:23.967Z,29.93
2024-02-04T16:02:27.661Z,17.65
2024-02-04T16:05:33.616Z,26.20
2024-02-04T16:08:39.934Z,28.87
2024-02-04T16:11:55.357Z,32.67
2024-02-04T16:14:59.981Z,27.85
2024-02-04T16:18:03.225Z,40.45
2024-02-04T16:21:06.246Z,54.30
2024-02-04T16:24:09.159Z,42.83
2024-02-04T16:27:12.961Z,45.45
2024-02-04T16:30:19.304Z,39.30
2024-02-04T16:33:23.269Z,21.77
2024-02-04T16:36:25.880Z,13.93
2024-02-04T16:39:32.107Z,15.95
2024-02-04T16:42:36.877Z,13.90
2024-02-04T16:45:40.726Z,17.27
2024-02-04T16:48:44.764Z,17.60
2024-02-04T16:51:50.200Z,53.17
2024-02-04T16:54:54.700Z,50.75
2024-02-04T16:57:58.124Z,56.97
2024-02-04T17:01:01.117Z,27.55
2024-02-04T17:04:07.206Z,26.83
2024-02-04T17:07:11.506Z,30.15
2024-02-04T17:10:15.931Z,20.03
2024-02-04T17:13:19.536Z,16.92
2024-02-04T17:16:30.997Z,18.98
2024-02-04T17:19:49.702Z,23.93
2024-02-04T17:23:00.066Z,40.08
2024-02-04T17:26:05.704Z,38.22
2024-02-04T17:29:10.124Z,28.73
2024-02-04T17:32:14.192Z,23.33
2024-02-04T17:35:20.805Z,20.48
2024-02-04T17:38:23.699Z,16.40
2024-02-04T17:41:27.654Z,16.47
2024-02-04T17:44:30.462Z,11.43
2024-02-04T17:47:33.572Z,9.18
2024-02-04T17:50:36.726Z,7.35
2024-02-04T17:53:40.445Z,6.68
2024-02-04T17:56:44.768Z,10.23
2024-02-04T17:59:48.440Z,9.80
2024-02-04T18:02:51.088Z,7.33
2024-02-04T18:05:55.525Z,11.95
2024-02-04T18:08:58.686Z,13.23
2024-02-04T18:12:01.774Z,13.05
2024-02-04T18:15:06.722Z,12.75
2024-02-04T18:18:10.523Z,9.77
2024-02-04T18:21:24.179Z,7.90
2024-02-04T18:24:27.399Z,6.63
2024-02-04T18:27:30.656Z,13.63
2024-02-04T18:30:34.868Z,13.93
2024-02-04T18:33:40.282Z,14.37
2024-02-04T18:36:43.594Z,7.63
2024-02-04T18:39:48.753Z,4.57
2024-02-04T18:42:51.441Z,2.97
2024-02-04T18:45:56.677Z,4.30
2024-02-04T18:49:00.376Z,5.68
2024-02-04T18:52:04.206Z,5.93
2024-02-04T18:55:08.590Z,4.63
2024-02-04T18:58:11.909Z,5.47
2024-02-04T19:01:19.756Z,5.28
2024-02-04T19:04:28.151Z,4.88
2024-02-04T19:07:31.739Z,3.17
2024-02-04T19:10:34.918Z,4.03
2024-02-04T19:13:38.711Z,4.78
2024-02-04T19:16:41.739Z,6.03
2024-02-04T19:19:45.711Z,7.35
2024-02-04T19:22:49.492Z,7.60
2024-02-04T19:25:52.400Z,6.17
2024-02-04T19:28:55.084Z,6.13
2024-02-04T19:31:59.195Z,7.07
2024-02-04T19:35:01.891Z,7.00
2024-02-04T19:38:05.274Z,7.63
2024-02-04T19:41:08.567Z,10.10
2024-02-04T19:44:11.369Z,9.45
2024-02-04T19:47:14.088Z,7.00
2024-02-04T19:50:16.912Z,7.60
2024-02-04T19:53:20.532Z,3.75
2024-02-04T19:56:23.484Z,5.73
2024-02-04T19:59:27.197Z,6.83
2024-02-04T20:02:30.091Z,4.68
2024-02-04T20:05:33.094Z,5.93
2024-02-04T20:08:36.575Z,6.30
2024-02-04T20:11:39.542Z,4.00
2024-02-04T20:14:42.161Z,3.63
2024-02-04T20:17:47.656Z,11.97
2024-02-04T20:20:50.415Z,4.40
2024-02-04T20:23:53.140Z,4.88
2024-02-04T20:26:56.020Z,2.50
2024-02-04T20:29:59.744Z,2.37
2024-02-04T20:33:02.605Z,4.00
2024-02-04T20:36:05.485Z,3.78
2024-02-04T20:39:08.969Z,5.88
2024-02-04T20:42:14.849Z,3.88
2024-02-04T20:45:17.791Z,2.40
2024-02-04T20:48:21.220Z,3.40
2024-02-04T20:51:26.164Z,2.37
2024-02-04T20:54:29.007Z,4.43
2024-02-04T20:57:31.779Z,4.63
2024-02-04T21:00:34.872Z,3.47
2024-02-04T21:03:38.216Z,3.73
2024-02-04T21:06:41.094Z,3.63
2024-02-04T21:09:44.011Z,2.13
2024-02-04T21:12:47.385Z,2.53
2024-02-04T21:15:50.212Z,3.67
2024-02-04T21:18:53.348Z,3.25
2024-02-04T21:21:57.251Z,3.05
2024-02-04T21:25:03.804Z,3.07
2024-02-04T21:28:07.725Z,3.03
2024-02-04T21:31:11.041Z,2.88
2024-02-04T21:34:13.819Z,3.35
2024-02-04T21:37:17.719Z,2.77
2024-02-04T21:40:23.503Z,3.28
2024-02-04T21:43:26.200Z,2.78
2024-02-04T21:46:28.741Z,3.90
2024-02-04T21:49:31.398Z,2.93
2024-02-04T21:52:34.071Z,3.13
2024-02-04T21:55:36.614Z,2.28
2024-02-04T21:58:39.230Z,2.53
2024-02-04T22:01:42.358Z,2.05
2024-02-04T22:04:45.032Z,1.92
2024-02-04T22:07:47.686Z,2.10
2024-02-04T22:10:50.461Z,2.63
2024-02-04T22:13:53.347Z,6.45
2024-02-04T22:16:57.105Z,5.70
2024-02-04T22:19:59.787Z,6.53
2024-02-04T22:23:03.008Z,4.10
2024-02-04T22:26:05.590Z,3.78
2024-02-04T22:29:08.209Z,4.00
2024-02-04T22:32:10.738Z,3.97
2024-02-04T22:35:13.755Z,4.03
2024-02-04T22:38:16.594Z,3.40
2024-02-04T22:41:19.273Z,4.32
2024-02-04T22:44:21.962Z,3.10
2024-02-04T22:47:26.146Z,2.50
2024-02-04T22:50:28.712Z,3.00
2024-02-04T22:53:31.233Z,3.67
2024-02-04T22:56:34.082Z,2.72
2024-02-04T22:59:36.765Z,6.10
2024-02-04T23:02:39.915Z,4.03
2024-02-04T23:05:44.132Z,3.80
2024-02-04T23:08:46.704Z,3.97
2024-02-04T23:11:49.554Z,4.63
2024-02-04T23:14:52.118Z,7.47
2024-02-04T23:17:55.426Z,4.15
2024-02-04T23:20:58.556Z,4.75
2024-02-04T23:24:01.603Z,5.07
2024-02-04T23:27:05.177Z,5.13
2024-02-04T23:30:09.401Z,5.70
2024-02-04T23:33:13.263Z,6.60
2024-02-04T23:36:15.892Z,4.55
2024-02-04T23:39:20.217Z,7.70
2024-02-04T23:42:23.765Z,7.40
2024-02-04T23:45:27.029Z,5.55
2024-02-04T23:48:29.946Z,5.68
2024-02-04T23:51:32.788Z,3.88
2024-02-04T23:54:35.553Z,4.00
2024-02-04T23:57:41.719Z,3.80
